Terminal Aerodrome Forecast
Issued by NWS Twin Cities, MN

Home | Current Version | Previous Version | Text Only | Print | Product List | Glossary Off
Versions: 1 2 3 4 5 6 7 8 9 10 11 12 13 14 15 16 17 18 19 20

000
FTUS43 KMPX 252050 AAA
TAFSTC
TAF AMD
KSTC 252050Z 2521/2618 03004KT P6SM SCT023
     FM260200 17004KT P6SM SCT015
     FM260600 18007KT P6SM BKN015
     FM260800 19010KT 6SM -SN BR OVC012 PROB30 2609/2613 4SM -FZDZ
      BR OVC008
     FM261400 27007KT 6SM BR OVC015=

USA.gov is the U.S. government's official web portal to all federal, state and local government web resources and services.